sensor_id;sensor_type;location;lat;lon;timestamp;temperature;humidity
20432;DHT22;10375;49.136;10.366;2024-01-30T00:00:16;-0.50;99.90
20432;DHT22;10375;49.136;10.366;2024-01-30T00:02:43;-0.50;99.90
20432;DHT22;10375;49.136;10.366;2024-01-30T00:05:13;-0.50;99.90
20432;DHT22;10375;49.136;10.366;2024-01-30T00:07:40;-0.50;99.90
20432;DHT22;10375;49.136;10.366;2024-01-30T00:10:07;-0.60;99.90
20432;DHT22;10375;49.136;10.366;2024-01-30T00:12:34;-0.60;99.90
20432;DHT22;10375;49.136;10.366;2024-01-30T00:15:02;-0.60;99.90
20432;DHT22;10375;49.136;10.366;2024-01-30T00:17:31;-0.70;99.90
20432;DHT22;10375;49.136;10.366;2024-01-30T00:19:58;-0.70;99.90
20432;DHT22;10375;49.136;10.366;2024-01-30T00:22:25;-0.70;99.90
20432;DHT22;10375;49.136;10.366;2024-01-30T00:24:54;-0.70;99.90
20432;DHT22;10375;49.136;10.366;2024-01-30T00:27:21;-0.70;99.90
20432;DHT22;10375;49.136;10.366;2024-01-30T00:29:48;-0.60;99.90
20432;DHT22;10375;49.136;10.366;2024-01-30T00:32:16;-0.60;99.90
20432;DHT22;10375;49.136;10.366;2024-01-30T00:34:43;-0.70;99.90
20432;DHT22;10375;49.136;10.366;2024-01-30T00:37:10;-0.60;99.90
20432;DHT22;10375;49.136;10.366;2024-01-30T00:39:37;-0.70;99.90
20432;DHT22;10375;49.136;10.366;2024-01-30T00:42:05;-0.70;99.90
20432;DHT22;10375;49.136;10.366;2024-01-30T00:44:35;-0.60;99.90
20432;DHT22;10375;49.136;10.366;2024-01-30T00:47:03;-0.60;99.90
20432;DHT22;10375;49.136;10.366;2024-01-30T00:49:30;-0.60;99.90
20432;DHT22;10375;49.136;10.366;2024-01-30T00:51:57;-0.60;99.90
20432;DHT22;10375;49.136;10.366;2024-01-30T00:54:24;-0.60;99.90
20432;DHT22;10375;49.136;10.366;2024-01-30T00:56:52;-0.70;99.90
20432;DHT22;10375;49.136;10.366;2024-01-30T00:59:19;-0.80;99.90
20432;DHT22;10375;49.136;10.366;2024-01-30T01:01:46;-0.80;99.90
20432;DHT22;10375;49.136;10.366;2024-01-30T01:04:13;-0.80;99.90
20432;DHT22;10375;49.136;10.366;2024-01-30T01:06:41;-0.80;99.90
20432;DHT22;10375;49.136;10.366;2024-01-30T01:09:11;-0.80;99.90
20432;DHT22;10375;49.136;10.366;2024-01-30T01:11:39;-0.80;99.90
20432;DHT22;10375;49.136;10.366;2024-01-30T01:14:07;-0.70;99.90
20432;DHT22;10375;49.136;10.366;2024-01-30T01:16:34;-0.70;99.90
20432;DHT22;10375;49.136;10.366;2024-01-30T01:19:01;-0.70;99.90
20432;DHT22;10375;49.136;10.366;2024-01-30T01:21:29;-0.60;99.90
20432;DHT22;10375;49.136;10.366;2024-01-30T01:23:56;-0.50;99.90
20432;DHT22;10375;49.136;10.366;2024-01-30T01:26:23;-0.40;99.90
20432;DHT22;10375;49.136;10.366;2024-01-30T01:28:50;-0.40;99.90
20432;DHT22;10375;49.136;10.366;2024-01-30T01:31:17;-0.40;99.90
20432;DHT22;10375;49.136;10.366;2024-01-30T01:33:45;-0.40;99.90
20432;DHT22;10375;49.136;10.366;2024-01-30T01:36:13;-0.30;99.90
20432;DHT22;10375;49.136;10.366;2024-01-30T01:38:40;-0.30;99.90
20432;DHT22;10375;49.136;10.366;2024-01-30T01:41:07;-0.30;99.90
20432;DHT22;10375;49.136;10.366;2024-01-30T01:43:35;-0.40;99.90
20432;DHT22;10375;49.136;10.366;2024-01-30T01:46:02;-0.40;99.90
20432;DHT22;10375;49.136;10.366;2024-01-30T01:48:29;-0.50;99.90
20432;DHT22;10375;49.136;10.366;2024-01-30T01:50:59;-0.50;99.90
20432;DHT22;10375;49.136;10.366;2024-01-30T01:53:27;-0.50;99.90
20432;DHT22;10375;49.136;10.366;2024-01-30T01:55:55;-0.60;99.90
20432;DHT22;10375;49.136;10.366;2024-01-30T01:58:22;-0.60;99.90
20432;DHT22;10375;49.136;10.366;2024-01-30T02:00:53;-0.70;99.90
20432;DHT22;10375;49.136;10.366;2024-01-30T02:03:20;-0.60;99.90
20432;DHT22;10375;49.136;10.366;2024-01-30T02:05:50;-0.60;99.90
20432;DHT22;10375;49.136;10.366;2024-01-30T02:08:17;-0.60;99.90
20432;DHT22;10375;49.136;10.366;2024-01-30T02:10:44;-0.70;99.90
20432;DHT22;10375;49.136;10.366;2024-01-30T02:13:12;-0.70;99.90
20432;DHT22;10375;49.136;10.366;2024-01-30T02:15:39;-0.80;99.90
20432;DHT22;10375;49.136;10.366;2024-01-30T02:18:06;-0.80;99.90
20432;DHT22;10375;49.136;10.366;2024-01-30T02:20:35;-0.80;99.90
20432;DHT22;10375;49.136;10.366;2024-01-30T02:23:04;-0.90;99.90
20432;DHT22;10375;49.136;10.366;2024-01-30T02:25:33;-0.90;99.90
20432;DHT22;10375;49.136;10.366;2024-01-30T02:28:01;-0.90;99.90
20432;DHT22;10375;49.136;10.366;2024-01-30T02:30:28;-0.80;99.90
20432;DHT22;10375;49.136;10.366;2024-01-30T02:32:56;-0.90;99.90
20432;DHT22;10375;49.136;10.366;2024-01-30T02:35:23;-0.90;99.90
20432;DHT22;10375;49.136;10.366;2024-01-30T02:37:51;-0.90;99.90
20432;DHT22;10375;49.136;10.366;2024-01-30T02:40:18;-0.90;99.90
20432;DHT22;10375;49.136;10.366;2024-01-30T02:42:45;-0.80;99.90
20432;DHT22;10375;49.136;10.366;2024-01-30T02:45:12;-0.80;99.90
20432;DHT22;10375;49.136;10.366;2024-01-30T02:47:40;-0.80;99.90
20432;DHT22;10375;49.136;10.366;2024-01-30T02:50:08;-0.80;99.90
20432;DHT22;10375;49.136;10.366;2024-01-30T02:52:35;-0.80;99.90
20432;DHT22;10375;49.136;10.366;2024-01-30T02:55:03;-0.80;99.90
20432;DHT22;10375;49.136;10.366;2024-01-30T02:57:30;-0.70;99.90
20432;DHT22;10375;49.136;10.366;2024-01-30T02:59:57;-0.80;99.90
20432;DHT22;10375;49.136;10.366;2024-01-30T03:02:24;-0.70;99.90
20432;DHT22;10375;49.136;10.366;2024-01-30T03:04:52;-0.70;99.90
20432;DHT22;10375;49.136;10.366;2024-01-30T03:07:19;-0.70;99.90
20432;DHT22;10375;49.136;10.366;2024-01-30T03:09:46;-0.60;99.90
20432;DHT22;10375;49.136;10.366;2024-01-30T03:12:13;-0.70;99.90
20432;DHT22;10375;49.136;10.366;2024-01-30T03:14:40;-0.70;99.90
20432;DHT22;10375;49.136;10.366;2024-01-30T03:17:08;-0.70;99.90
20432;DHT22;10375;49.136;10.366;2024-01-30T03:19:35;-0.70;99.90
20432;DHT22;10375;49.136;10.366;2024-01-30T03:22:02;-0.70;99.90
20432;DHT22;10375;49.136;10.366;2024-01-30T03:24:30;-0.70;99.90
20432;DHT22;10375;49.136;10.366;2024-01-30T03:26:57;-0.70;99.90
20432;DHT22;10375;49.136;10.366;2024-01-30T03:29:24;-0.80;99.90
20432;DHT22;10375;49.136;10.366;2024-01-30T03:31:51;-0.80;99.90
20432;DHT22;10375;49.136;10.366;2024-01-30T03:34:18;-0.80;99.90
20432;DHT22;10375;49.136;10.366;2024-01-30T03:36:46;-0.80;99.90
20432;DHT22;10375;49.136;10.366;2024-01-30T03:39:13;-0.80;99.90
20432;DHT22;10375;49.136;10.366;2024-01-30T03:41:42;-0.90;99.90
20432;DHT22;10375;49.136;10.366;2024-01-30T03:44:10;-0.90;99.90
20432;DHT22;10375;49.136;10.366;2024-01-30T03:46:37;-0.90;99.90
20432;DHT22;10375;49.136;10.366;2024-01-30T03:49:04;-0.90;99.90
20432;DHT22;10375;49.136;10.366;2024-01-30T03:51:32;-0.90;99.90
20432;DHT22;10375;49.136;10.366;2024-01-30T03:53:59;-0.90;99.90
20432;DHT22;10375;49.136;10.366;2024-01-30T03:56:26;-1.00;99.90
20432;DHT22;10375;49.136;10.366;2024-01-30T03:58:53;-1.00;99.90
20432;DHT22;10375;49.136;10.366;2024-01-30T04:01:21;-1.00;99.90
20432;DHT22;10375;49.136;10.366;2024-01-30T04:03:48;-1.10;99.90
20432;DHT22;10375;49.136;10.366;2024-01-30T04:06:15;-1.10;99.90
20432;DHT22;10375;49.136;10.366;2024-01-30T04:08:43;-1.10;99.90
20432;DHT22;10375;49.136;10.366;2024-01-30T04:11:10;-1.10;99.90
20432;DHT22;10375;49.136;10.366;2024-01-30T04:13:37;-1.10;99.90
20432;DHT22;10375;49.136;10.366;2024-01-30T04:16:04;-1.10;99.90
20432;DHT22;10375;49.136;10.366;2024-01-30T04:18:32;-1.10;99.90
20432;DHT22;10375;49.136;10.366;2024-01-30T04:21:00;-1.10;99.90
20432;DHT22;10375;49.136;10.366;2024-01-30T04:23:27;-1.10;99.90
20432;DHT22;10375;49.136;10.366;2024-01-30T04:25:54;-1.10;99.90
20432;DHT22;10375;49.136;10.366;2024-01-30T04:28:21;-1.10;99.90
20432;DHT22;10375;49.136;10.366;2024-01-30T04:30:49;-1.10;99.90
20432;DHT22;10375;49.136;10.366;2024-01-30T04:33:16;-1.20;99.90
20432;DHT22;10375;49.136;10.366;2024-01-30T04:35:45;-1.20;99.90
20432;DHT22;10375;49.136;10.366;2024-01-30T04:38:12;-1.20;99.90
20432;DHT22;10375;49.136;10.366;2024-01-30T04:40:41;-1.20;99.90
20432;DHT22;10375;49.136;10.366;2024-01-30T04:43:08;-1.20;99.90
20432;DHT22;10375;49.136;10.366;2024-01-30T04:45:35;-1.30;99.90
20432;DHT22;10375;49.136;10.366;2024-01-30T04:48:02;-1.20;99.90
20432;DHT22;10375;49.136;10.366;2024-01-30T04:50:29;-1.20;99.90
20432;DHT22;10375;49.136;10.366;2024-01-30T04:52:57;-1.20;99.90
20432;DHT22;10375;49.136;10.366;2024-01-30T04:55:24;-1.30;99.90
20432;DHT22;10375;49.136;10.366;2024-01-30T04:57:51;-1.20;99.90
20432;DHT22;10375;49.136;10.366;2024-01-30T05:00:18;-1.20;99.90
20432;DHT22;10375;49.136;10.366;2024-01-30T05:02:46;-1.20;99.90
20432;DHT22;10375;49.136;10.366;2024-01-30T05:05:13;-1.20;99.90
20432;DHT22;10375;49.136;10.366;2024-01-30T05:07:41;-1.20;99.90
20432;DHT22;10375;49.136;10.366;2024-01-30T05:10:08;-1.20;99.90
20432;DHT22;10375;49.136;10.366;2024-01-30T05:12:36;-1.20;99.90
20432;DHT22;10375;49.136;10.366;2024-01-30T05:15:03;-1.20;99.90
20432;DHT22;10375;49.136;10.366;2024-01-30T05:17:31;-1.20;99.90
20432;DHT22;10375;49.136;10.366;2024-01-30T05:19:59;-1.20;99.90
20432;DHT22;10375;49.136;10.366;2024-01-30T05:22:26;-1.20;99.90
20432;DHT22;10375;49.136;10.366;2024-01-30T05:24:53;-1.20;99.90
20432;DHT22;10375;49.136;10.366;2024-01-30T05:27:21;-1.20;99.90
20432;DHT22;10375;49.136;10.366;2024-01-30T05:29:48;-1.10;99.90
20432;DHT22;10375;49.136;10.366;2024-01-30T05:32:15;-1.20;99.90
20432;DHT22;10375;49.136;10.366;2024-01-30T05:34:42;-1.20;99.90
20432;DHT22;10375;49.136;10.366;2024-01-30T05:37:09;-1.20;99.90
20432;DHT22;10375;49.136;10.366;2024-01-30T05:39:41;-1.10;99.90
20432;DHT22;10375;49.136;10.366;2024-01-30T05:42:08;-1.10;99.90
20432;DHT22;10375;49.136;10.366;2024-01-30T05:44:35;-1.10;99.90
20432;DHT22;10375;49.136;10.366;2024-01-30T05:47:03;-1.00;99.90
20432;DHT22;10375;49.136;10.366;2024-01-30T05:49:30;-1.00;99.90
20432;DHT22;10375;49.136;10.366;2024-01-30T05:51:57;-1.00;99.90
20432;DHT22;10375;49.136;10.366;2024-01-30T05:54:24;-0.90;99.90
20432;DHT22;10375;49.136;10.366;2024-01-30T05:56:51;-0.90;99.90
20432;DHT22;10375;49.136;10.366;2024-01-30T05:59:19;-0.90;99.90
20432;DHT22;10375;49.136;10.366;2024-01-30T06:01:47;-0.80;99.90
20432;DHT22;10375;49.136;10.366;2024-01-30T06:04:15;-0.80;99.90
20432;DHT22;10375;49.136;10.366;2024-01-30T06:06:42;-0.80;99.90
20432;DHT22;10375;49.136;10.366;2024-01-30T06:09:09;-0.80;99.90
20432;DHT22;10375;49.136;10.366;2024-01-30T06:11:36;-0.70;99.90
20432;DHT22;10375;49.136;10.366;2024-01-30T06:14:04;-0.70;99.90
20432;DHT22;10375;49.136;10.366;2024-01-30T06:16:31;-0.70;99.90
20432;DHT22;10375;49.136;10.366;2024-01-30T06:18:58;-0.70;99.90
20432;DHT22;10375;49.136;10.366;2024-01-30T06:21:27;-0.70;99.90
20432;DHT22;10375;49.136;10.366;2024-01-30T06:23:54;-0.70;99.90
20432;DHT22;10375;49.136;10.366;2024-01-30T06:26:21;-0.70;99.90
20432;DHT22;10375;49.136;10.366;2024-01-30T06:28:48;-0.70;99.90
20432;DHT22;10375;49.136;10.366;2024-01-30T06:31:16;-0.70;99.90
20432;DHT22;10375;49.136;10.366;2024-01-30T06:33:43;-0.70;99.90
20432;DHT22;10375;49.136;10.366;2024-01-30T06:36:10;-0.70;99.90
20432;DHT22;10375;49.136;10.366;2024-01-30T06:38:37;-0.60;99.90
20432;DHT22;10375;49.136;10.366;2024-01-30T06:41:04;-0.60;99.90
20432;DHT22;10375;49.136;10.366;2024-01-30T06:43:31;-0.60;99.90
20432;DHT22;10375;49.136;10.366;2024-01-30T06:45:58;-0.50;99.90
20432;DHT22;10375;49.136;10.366;2024-01-30T06:48:26;-0.50;99.90
20432;DHT22;10375;49.136;10.366;2024-01-30T06:50:53;-0.40;99.90
20432;DHT22;10375;49.136;10.366;2024-01-30T06:53:21;-0.40;99.90
20432;DHT22;10375;49.136;10.366;2024-01-30T06:55:48;-0.30;99.90
20432;DHT22;10375;49.136;10.366;2024-01-30T06:58:15;-0.30;99.90
20432;DHT22;10375;49.136;10.366;2024-01-30T07:00:42;-0.20;99.90
20432;DHT22;10375;49.136;10.366;2024-01-30T07:03:09;-0.20;99.90
20432;DHT22;10375;49.136;10.366;2024-01-30T07:05:36;-0.10;99.90
20432;DHT22;10375;49.136;10.366;2024-01-30T07:08:04;0.00;99.90
20432;DHT22;10375;49.136;10.366;2024-01-30T07:10:31;0.00;99.90
20432;DHT22;10375;49.136;10.366;2024-01-30T07:12:59;0.10;99.90
20432;DHT22;10375;49.136;10.366;2024-01-30T07:15:27;0.20;99.90
20432;DHT22;10375;49.136;10.366;2024-01-30T07:17:54;0.30;99.90
20432;DHT22;10375;49.136;10.366;2024-01-30T07:20:21;0.50;99.90
20432;DHT22;10375;49.136;10.366;2024-01-30T07:22:49;0.60;99.90
20432;DHT22;10375;49.136;10.366;2024-01-30T07:25:16;0.80;99.90
20432;DHT22;10375;49.136;10.366;2024-01-30T07:27:44;1.10;99.90
20432;DHT22;10375;49.136;10.366;2024-01-30T07:30:12;1.30;99.90
20432;DHT22;10375;49.136;10.366;2024-01-30T07:32:39;1.50;99.90
20432;DHT22;10375;49.136;10.366;2024-01-30T07:35:06;1.60;99.90
20432;DHT22;10375;49.136;10.366;2024-01-30T07:37:35;1.80;99.90
20432;DHT22;10375;49.136;10.366;2024-01-30T07:40:03;2.10;99.90
20432;DHT22;10375;49.136;10.366;2024-01-30T07:42:31;2.20;99.90
20432;DHT22;10375;49.136;10.366;2024-01-30T07:44:59;2.30;99.90
20432;DHT22;10375;49.136;10.366;2024-01-30T07:47:26;2.30;99.90
20432;DHT22;10375;49.136;10.366;2024-01-30T07:49:55;2.30;99.90
20432;DHT22;10375;49.136;10.366;2024-01-30T07:52:23;2.30;99.90
20432;DHT22;10375;49.136;10.366;2024-01-30T07:54:51;2.30;99.90
20432;DHT22;10375;49.136;10.366;2024-01-30T07:57:19;2.50;99.90
20432;DHT22;10375;49.136;10.366;2024-01-30T07:59:46;2.70;99.90
20432;DHT22;10375;49.136;10.366;2024-01-30T08:02:14;2.90;99.90
20432;DHT22;10375;49.136;10.366;2024-01-30T08:04:42;3.00;99.90
20432;DHT22;10375;49.136;10.366;2024-01-30T08:07:09;3.10;99.90
20432;DHT22;10375;49.136;10.366;2024-01-30T08:09:37;3.20;99.90
20432;DHT22;10375;49.136;10.366;2024-01-30T08:12:04;3.20;99.90
20432;DHT22;10375;49.136;10.366;2024-01-30T08:14:32;3.60;99.90
20432;DHT22;10375;49.136;10.366;2024-01-30T08:16:59;4.00;99.90
20432;DHT22;10375;49.136;10.366;2024-01-30T08:19:26;4.40;99.90
20432;DHT22;10375;49.136;10.366;2024-01-30T08:21:53;4.80;99.90
20432;DHT22;10375;49.136;10.366;2024-01-30T08:24:21;4.90;99.90
20432;DHT22;10375;49.136;10.366;2024-01-30T08:26:48;4.90;99.90
20432;DHT22;10375;49.136;10.366;2024-01-30T08:29:15;5.00;99.90
20432;DHT22;10375;49.136;10.366;2024-01-30T08:31:43;4.90;99.90
20432;DHT22;10375;49.136;10.366;2024-01-30T08:34:11;4.90;99.90
20432;DHT22;10375;49.136;10.366;2024-01-30T08:36:38;4.80;99.90
20432;DHT22;10375;49.136;10.366;2024-01-30T08:39:06;4.60;99.90
20432;DHT22;10375;49.136;10.366;2024-01-30T08:41:33;4.60;99.90
20432;DHT22;10375;49.136;10.366;2024-01-30T08:44:00;4.60;99.90
20432;DHT22;10375;49.136;10.366;2024-01-30T08:46:28;4.70;99.90
20432;DHT22;10375;49.136;10.366;2024-01-30T08:48:55;4.90;99.90
20432;DHT22;10375;49.136;10.366;2024-01-30T08:51:22;5.10;99.90
20432;DHT22;10375;49.136;10.366;2024-01-30T08:53:50;5.40;99.90
20432;DHT22;10375;49.136;10.366;2024-01-30T08:56:17;5.70;99.90
20432;DHT22;10375;49.136;10.366;2024-01-30T08:58:45;5.90;99.90
20432;DHT22;10375;49.136;10.366;2024-01-30T09:01:12;5.90;99.90
20432;DHT22;10375;49.136;10.366;2024-01-30T09:03:40;6.00;99.90
20432;DHT22;10375;49.136;10.366;2024-01-30T09:06:09;6.20;99.90
20432;DHT22;10375;49.136;10.366;2024-01-30T09:08:36;6.30;99.90
20432;DHT22;10375;49.136;10.366;2024-01-30T09:11:13;6.40;99.90
20432;DHT22;10375;49.136;10.366;2024-01-30T09:13:42;6.30;99.90
20432;DHT22;10375;49.136;10.366;2024-01-30T09:16:10;6.20;99.90
20432;DHT22;10375;49.136;10.366;2024-01-30T09:18:38;6.10;99.90
20432;DHT22;10375;49.136;10.366;2024-01-30T09:21:07;6.20;99.90
20432;DHT22;10375;49.136;10.366;2024-01-30T09:23:34;6.30;99.90
20432;DHT22;10375;49.136;10.366;2024-01-30T09:26:04;6.30;99.90
20432;DHT22;10375;49.136;10.366;2024-01-30T09:28:33;6.20;99.90
20432;DHT22;10375;49.136;10.366;2024-01-30T09:31:01;6.20;99.90
20432;DHT22;10375;49.136;10.366;2024-01-30T09:33:29;6.10;99.90
20432;DHT22;10375;49.136;10.366;2024-01-30T09:35:56;6.20;99.90
20432;DHT22;10375;49.136;10.366;2024-01-30T09:38:24;6.00;99.90
20432;DHT22;10375;49.136;10.366;2024-01-30T09:40:54;6.10;99.90
20432;DHT22;10375;49.136;10.366;2024-01-30T09:43:24;6.10;99.90
20432;DHT22;10375;49.136;10.366;2024-01-30T09:45:54;6.00;99.90
20432;DHT22;10375;49.136;10.366;2024-01-30T09:48:22;6.10;99.90
20432;DHT22;10375;49.136;10.366;2024-01-30T09:50:52;6.00;99.90
20432;DHT22;10375;49.136;10.366;2024-01-30T09:53:22;6.00;99.90
20432;DHT22;10375;49.136;10.366;2024-01-30T09:55:50;6.00;99.90
20432;DHT22;10375;49.136;10.366;2024-01-30T09:58:18;6.00;99.90
20432;DHT22;10375;49.136;10.366;2024-01-30T10:00:45;6.10;99.90
20432;DHT22;10375;49.136;10.366;2024-01-30T10:03:12;6.20;99.90
20432;DHT22;10375;49.136;10.366;2024-01-30T10:05:50;6.40;99.90
20432;DHT22;10375;49.136;10.366;2024-01-30T10:08:19;6.50;99.90
20432;DHT22;10375;49.136;10.366;2024-01-30T10:10:49;6.50;99.90
20432;DHT22;10375;49.136;10.366;2024-01-30T10:13:17;6.70;99.90
20432;DHT22;10375;49.136;10.366;2024-01-30T10:15:45;6.70;99.90
20432;DHT22;10375;49.136;10.366;2024-01-30T10:18:13;6.70;99.90
20432;DHT22;10375;49.136;10.366;2024-01-30T10:20:41;6.70;99.90
20432;DHT22;10375;49.136;10.366;2024-01-30T10:23:10;6.70;99.90
20432;DHT22;10375;49.136;10.366;2024-01-30T10:25:38;6.70;99.90
20432;DHT22;10375;49.136;10.366;2024-01-30T10:28:17;6.80;99.90
20432;DHT22;10375;49.136;10.366;2024-01-30T10:30:46;6.90;99.90
20432;DHT22;10375;49.136;10.366;2024-01-30T10:33:19;7.00;99.90
20432;DHT22;10375;49.136;10.366;2024-01-30T10:35:48;7.10;99.90
20432;DHT22;10375;49.136;10.366;2024-01-30T10:38:19;7.20;99.90
20432;DHT22;10375;49.136;10.366;2024-01-30T10:40:48;7.30;99.90
20432;DHT22;10375;49.136;10.366;2024-01-30T10:43:20;7.40;99.90
20432;DHT22;10375;49.136;10.366;2024-01-30T10:45:51;7.50;99.90
20432;DHT22;10375;49.136;10.366;2024-01-30T10:48:25;7.80;99.90
20432;DHT22;10375;49.136;10.366;2024-01-30T10:51:04;8.00;99.90
20432;DHT22;10375;49.136;10.366;2024-01-30T10:53:46;8.10;99.90
20432;DHT22;10375;49.136;10.366;2024-01-30T10:56:17;8.20;99.90
20432;DHT22;10375;49.136;10.366;2024-01-30T10:59:03;8.20;99.90
20432;DHT22;10375;49.136;10.366;2024-01-30T11:01:36;8.20;99.90
20432;DHT22;10375;49.136;10.366;2024-01-30T11:04:07;8.20;99.90
20432;DHT22;10375;49.136;10.366;2024-01-30T11:06:41;8.20;99.90
20432;DHT22;10375;49.136;10.366;2024-01-30T11:09:11;8.10;99.90
20432;DHT22;10375;49.136;10.366;2024-01-30T11:11:56;8.10;99.90
20432;DHT22;10375;49.136;10.366;2024-01-30T11:14:30;8.20;99.90
20432;DHT22;10375;49.136;10.366;2024-01-30T11:16:59;8.30;99.90
20432;DHT22;10375;49.136;10.366;2024-01-30T11:19:38;8.40;99.90
20432;DHT22;10375;49.136;10.366;2024-01-30T11:22:36;8.70;99.90
20432;DHT22;10375;49.136;10.366;2024-01-30T11:25:32;8.90;99.90
20432;DHT22;10375;49.136;10.366;2024-01-30T11:32:30;9.10;99.90
20432;DHT22;10375;49.136;10.366;2024-01-30T11:35:22;9.10;99.90
20432;DHT22;10375;49.136;10.366;2024-01-30T11:38:17;9.20;99.90
20432;DHT22;10375;49.136;10.366;2024-01-30T11:40:49;9.10;99.90
20432;DHT22;10375;49.136;10.366;2024-01-30T11:43:51;9.10;99.90
20432;DHT22;10375;49.136;10.366;2024-01-30T11:46:37;9.00;99.90
20432;DHT22;10375;49.136;10.366;2024-01-30T11:49:07;9.00;99.90
20432;DHT22;10375;49.136;10.366;2024-01-30T11:51:47;9.00;99.90
20432;DHT22;10375;49.136;10.366;2024-01-30T11:54:42;9.10;99.90
20432;DHT22;10375;49.136;10.366;2024-01-30T11:57:11;9.10;99.90
20432;DHT22;10375;49.136;10.366;2024-01-30T11:59:45;9.20;99.90
20432;DHT22;10375;49.136;10.366;2024-01-30T12:02:19;9.30;99.90
20432;DHT22;10375;49.136;10.366;2024-01-30T12:04:49;9.40;99.90
20432;DHT22;10375;49.136;10.366;2024-01-30T12:07:25;9.40;99.90
20432;DHT22;10375;49.136;10.366;2024-01-30T12:09:54;9.40;99.90
20432;DHT22;10375;49.136;10.366;2024-01-30T12:16:31;9.50;99.90
20432;DHT22;10375;49.136;10.366;2024-01-30T12:19:01;9.50;99.90
20432;DHT22;10375;49.136;10.366;2024-01-30T12:21:33;9.60;99.90
20432;DHT22;10375;49.136;10.366;2024-01-30T12:24:27;9.60;99.90
20432;DHT22;10375;49.136;10.366;2024-01-30T12:27:36;9.60;99.90
20432;DHT22;10375;49.136;10.366;2024-01-30T12:30:28;9.60;99.90
20432;DHT22;10375;49.136;10.366;2024-01-30T12:33:20;9.60;99.90
20432;DHT22;10375;49.136;10.366;2024-01-30T12:36:05;9.70;99.90
20432;DHT22;10375;49.136;10.366;2024-01-30T12:38:37;9.70;99.90
20432;DHT22;10375;49.136;10.366;2024-01-30T12:41:07;9.80;99.90
20432;DHT22;10375;49.136;10.366;2024-01-30T12:44:04;9.90;99.90
20432;DHT22;10375;49.136;10.366;2024-01-30T12:50:31;10.00;99.90
20432;DHT22;10375;49.136;10.366;2024-01-30T12:52:59;10.00;99.90
20432;DHT22;10375;49.136;10.366;2024-01-30T12:55:27;10.10;99.90
20432;DHT22;10375;49.136;10.366;2024-01-30T12:57:59;10.10;99.90
20432;DHT22;10375;49.136;10.366;2024-01-30T13:00:32;10.10;99.90
20432;DHT22;10375;49.136;10.366;2024-01-30T13:03:01;10.10;99.90
20432;DHT22;10375;49.136;10.366;2024-01-30T13:05:28;10.00;99.90
20432;DHT22;10375;49.136;10.366;2024-01-30T13:07:56;10.00;99.90
20432;DHT22;10375;49.136;10.366;2024-01-30T13:10:24;10.10;99.90
20432;DHT22;10375;49.136;10.366;2024-01-30T13:12:51;10.10;99.90
20432;DHT22;10375;49.136;10.366;2024-01-30T13:15:19;10.10;99.90
20432;DHT22;10375;49.136;10.366;2024-01-30T13:17:46;10.00;99.90
20432;DHT22;10375;49.136;10.366;2024-01-30T13:20:15;10.00;99.90
20432;DHT22;10375;49.136;10.366;2024-01-30T13:22:48;10.00;99.90
20432;DHT22;10375;49.136;10.366;2024-01-30T13:25:18;10.00;99.90
20432;DHT22;10375;49.136;10.366;2024-01-30T13:27:45;10.00;99.90
20432;DHT22;10375;49.136;10.366;2024-01-30T13:30:13;10.00;99.90
20432;DHT22;10375;49.136;10.366;2024-01-30T13:32:40;10.10;99.90
20432;DHT22;10375;49.136;10.366;2024-01-30T13:35:11;10.10;99.90
20432;DHT22;10375;49.136;10.366;2024-01-30T13:37:38;10.10;99.90
20432;DHT22;10375;49.136;10.366;2024-01-30T13:40:06;10.20;99.90
20432;DHT22;10375;49.136;10.366;2024-01-30T13:42:38;10.20;99.90
20432;DHT22;10375;49.136;10.366;2024-01-30T13:45:07;10.30;99.90
20432;DHT22;10375;49.136;10.366;2024-01-30T13:47:37;10.30;99.90
20432;DHT22;10375;49.136;10.366;2024-01-30T13:50:05;10.40;99.90
20432;DHT22;10375;49.136;10.366;2024-01-30T13:52:33;10.50;99.90
20432;DHT22;10375;49.136;10.366;2024-01-30T13:55:10;10.50;99.90
20432;DHT22;10375;49.136;10.366;2024-01-30T13:57:38;10.60;99.90
20432;DHT22;10375;49.136;10.366;2024-01-30T14:00:07;10.70;99.90
20432;DHT22;10375;49.136;10.366;2024-01-30T14:02:34;10.80;99.90
20432;DHT22;10375;49.136;10.366;2024-01-30T14:05:02;10.80;99.90
20432;DHT22;10375;49.136;10.366;2024-01-30T14:07:32;10.80;99.90
20432;DHT22;10375;49.136;10.366;2024-01-30T14:09:59;10.80;99.90
20432;DHT22;10375;49.136;10.366;2024-01-30T14:12:27;10.90;99.90
20432;DHT22;10375;49.136;10.366;2024-01-30T14:14:54;10.80;99.90
20432;DHT22;10375;49.136;10.366;2024-01-30T14:17:21;10.70;99.90
20432;DHT22;10375;49.136;10.366;2024-01-30T14:19:48;10.60;99.90
20432;DHT22;10375;49.136;10.366;2024-01-30T14:22:16;10.50;99.90
20432;DHT22;10375;49.136;10.366;2024-01-30T14:24:43;10.30;99.90
20432;DHT22;10375;49.136;10.366;2024-01-30T14:27:10;10.20;99.90
20432;DHT22;10375;49.136;10.366;2024-01-30T14:29:37;10.00;99.90
20432;DHT22;10375;49.136;10.366;2024-01-30T14:32:05;9.80;99.90
20432;DHT22;10375;49.136;10.366;2024-01-30T14:34:32;9.70;99.90
20432;DHT22;10375;49.136;10.366;2024-01-30T14:37:01;9.70;99.90
20432;DHT22;10375;49.136;10.366;2024-01-30T14:39:33;9.50;99.90
20432;DHT22;10375;49.136;10.366;2024-01-30T14:46:48;9.30;99.90
20432;DHT22;10375;49.136;10.366;2024-01-30T14:49:52;9.10;99.90
20432;DHT22;10375;49.136;10.366;2024-01-30T14:52:56;9.00;99.90
20432;DHT22;10375;49.136;10.366;2024-01-30T14:56:17;8.90;99.90
20432;DHT22;10375;49.136;10.366;2024-01-30T14:59:07;8.80;99.90
20432;DHT22;10375;49.136;10.366;2024-01-30T15:01:36;8.70;99.90
20432;DHT22;10375;49.136;10.366;2024-01-30T15:04:07;8.50;99.90
20432;DHT22;10375;49.136;10.366;2024-01-30T15:07:41;8.50;99.90
20432;DHT22;10375;49.136;10.366;2024-01-30T15:10:15;8.40;99.90
20432;DHT22;10375;49.136;10.366;2024-01-30T15:12:49;8.30;99.90
20432;DHT22;10375;49.136;10.366;2024-01-30T15:16:00;8.20;99.90
20432;DHT22;10375;49.136;10.366;2024-01-30T15:18:32;8.10;99.90
20432;DHT22;10375;49.136;10.366;2024-01-30T15:21:02;8.00;99.90
20432;DHT22;10375;49.136;10.366;2024-01-30T15:23:30;7.90;99.90
20432;DHT22;10375;49.136;10.366;2024-01-30T15:25:58;7.90;99.90
20432;DHT22;10375;49.136;10.366;2024-01-30T15:28:40;7.90;99.90
20432;DHT22;10375;49.136;10.366;2024-01-30T15:31:08;7.80;99.90
20432;DHT22;10375;49.136;10.366;2024-01-30T15:33:38;7.70;99.90
20432;DHT22;10375;49.136;10.366;2024-01-30T15:36:05;7.70;99.90
20432;DHT22;10375;49.136;10.366;2024-01-30T15:38:33;7.60;99.90
20432;DHT22;10375;49.136;10.366;2024-01-30T15:41:00;7.50;99.90
20432;DHT22;10375;49.136;10.366;2024-01-30T15:43:27;7.40;99.90
20432;DHT22;10375;49.136;10.366;2024-01-30T15:45:55;7.30;99.90
20432;DHT22;10375;49.136;10.366;2024-01-30T15:48:22;7.20;99.90
20432;DHT22;10375;49.136;10.366;2024-01-30T15:50:49;7.00;99.90
20432;DHT22;10375;49.136;10.366;2024-01-30T15:53:16;6.90;99.90
20432;DHT22;10375;49.136;10.366;2024-01-30T15:55:44;6.80;99.90